createdAt,value
2023-03-12T00:01:30.422Z,10.18
2023-03-12T00:04:00.217Z,10.08
2023-03-12T00:06:29.970Z,9.95
2023-03-12T00:09:02.780Z,10.11
2023-03-12T00:11:32.024Z,10.22
2023-03-12T00:14:01.121Z,10.23
2023-03-12T00:16:30.500Z,10.16
2023-03-12T00:18:59.460Z,10.17
2023-03-12T00:21:28.649Z,10.09
2023-03-12T00:23:57.610Z,10.04
2023-03-12T00:26:26.687Z,10.03
2023-03-12T00:28:55.741Z,10.09
2023-03-12T00:31:30.421Z,10.10
2023-03-12T00:34:01.604Z,10.06
2023-03-12T00:36:32.621Z,10.00
2023-03-12T00:39:03.553Z,10.02
2023-03-12T00:41:32.666Z,9.98
2023-03-12T00:44:01.739Z,9.95
2023-03-12T00:46:30.995Z,9.92
2023-03-12T00:49:00.911Z,9.90
2023-03-12T00:51:30.206Z,9.77
2023-03-12T00:53:59.341Z,9.71
2023-03-12T00:56:28.309Z,9.77
2023-03-12T00:58:57.367Z,9.92
2023-03-12T01:01:28.416Z,9.83
2023-03-12T01:03:59.133Z,9.64
2023-03-12T01:06:28.237Z,9.60
2023-03-12T01:08:57.173Z,9.79
2023-03-12T01:11:26.604Z,9.80
2023-03-12T01:13:55.880Z,9.73
2023-03-12T01:16:28.928Z,9.77
2023-03-12T01:18:59.488Z,9.72
2023-03-12T01:21:29.908Z,9.75
2023-03-12T01:23:59.842Z,9.58
2023-03-12T01:26:29.219Z,9.61
2023-03-12T01:28:58.191Z,9.61
2023-03-12T01:31:27.348Z,9.50
2023-03-12T01:33:56.376Z,9.61
2023-03-12T01:36:31.524Z,9.48
2023-03-12T01:39:01.335Z,9.36
2023-03-12T01:41:35.304Z,9.41
2023-03-12T01:44:05.505Z,9.38
2023-03-12T01:46:40.019Z,9.41
2023-03-12T01:49:28.352Z,9.15
2023-03-12T01:52:01.141Z,9.15
2023-03-12T01:54:39.464Z,9.13
2023-03-12T01:57:14.447Z,8.99
2023-03-12T01:59:51.156Z,8.95
2023-03-12T02:02:27.717Z,8.83
2023-03-12T02:05:16.860Z,8.77
2023-03-12T02:07:45.955Z,8.57
2023-03-12T02:10:15.364Z,8.29
2023-03-12T02:12:44.774Z,8.54
2023-03-12T02:15:13.949Z,8.56
2023-03-12T02:17:43.290Z,8.39
2023-03-12T02:20:19.133Z,8.34
2023-03-12T02:22:56.782Z,8.25
2023-03-12T02:25:48.800Z,8.55
2023-03-12T02:28:23.973Z,8.53
2023-03-12T02:30:56.929Z,8.52
2023-03-12T02:33:26.000Z,8.46
2023-03-12T02:35:56.056Z,8.36
2023-03-12T02:38:43.589Z,8.20
2023-03-12T02:41:32.506Z,8.12
2023-03-12T02:44:15.624Z,8.31
2023-03-12T02:46:51.231Z,8.22
2023-03-12T02:49:23.130Z,8.12
2023-03-12T02:51:53.310Z,8.19
2023-03-12T02:54:23.192Z,8.11
2023-03-12T02:56:53.596Z,7.87
2023-03-12T02:59:26.848Z,7.87
2023-03-12T03:02:00.976Z,7.81
2023-03-12T03:04:32.333Z,7.87
2023-03-12T03:07:01.368Z,7.69
2023-03-12T03:09:30.297Z,7.71
2023-03-12T03:11:59.694Z,7.71
2023-03-12T03:14:31.720Z,7.57
2023-03-12T03:17:00.722Z,7.60
2023-03-12T03:19:29.687Z,7.43
2023-03-12T03:21:58.696Z,7.24
2023-03-12T03:24:27.800Z,7.34
2023-03-12T03:26:57.475Z,7.26
2023-03-12T03:29:26.511Z,7.23
2023-03-12T03:31:55.382Z,7.21
2023-03-12T03:34:24.326Z,7.15
2023-03-12T03:36:53.562Z,7.10
2023-03-12T03:39:23.122Z,7.02
2023-03-12T03:41:53.031Z,7.04
2023-03-12T03:44:24.877Z,7.03
2023-03-12T03:46:56.164Z,7.00
2023-03-12T03:49:25.281Z,6.92
2023-03-12T03:51:54.149Z,6.91
2023-03-12T03:54:31.908Z,6.82
2023-03-12T03:57:02.155Z,6.78
2023-03-12T03:59:31.393Z,6.75
2023-03-12T04:02:00.370Z,6.73
2023-03-12T04:04:32.267Z,6.70
2023-03-12T04:07:01.437Z,6.66
2023-03-12T04:09:31.411Z,6.62
2023-03-12T04:12:00.473Z,6.56
2023-03-12T04:14:29.426Z,6.51
2023-03-12T04:16:58.272Z,6.48
2023-03-12T04:19:27.991Z,6.45
2023-03-12T04:21:57.342Z,6.38
2023-03-12T04:24:26.431Z,6.37
2023-03-12T04:26:55.530Z,6.31
2023-03-12T04:29:24.470Z,6.27
2023-03-12T04:31:54.634Z,6.24
2023-03-12T04:34:23.995Z,6.19
2023-03-12T04:36:54.957Z,6.01
2023-03-12T04:39:24.364Z,5.93
2023-03-12T04:41:54.695Z,5.90
2023-03-12T04:44:23.818Z,5.98
2023-03-12T04:46:52.844Z,5.84
2023-03-12T04:49:24.751Z,5.84
2023-03-12T04:51:53.876Z,5.83
2023-03-12T04:54:23.738Z,5.77
2023-03-12T04:56:53.693Z,5.62
2023-03-12T04:59:24.392Z,5.46
2023-03-12T05:01:54.093Z,5.55
2023-03-12T05:04:27.780Z,5.55
2023-03-12T05:06:57.596Z,5.49
2023-03-12T05:09:26.786Z,5.26
2023-03-12T05:11:55.793Z,5.22
2023-03-12T05:14:25.265Z,5.36
2023-03-12T05:16:54.916Z,5.33
2023-03-12T05:19:24.064Z,5.31
2023-03-12T05:21:53.123Z,5.30
2023-03-12T05:24:23.362Z,5.27
2023-03-12T05:26:52.535Z,5.20
2023-03-12T05:29:25.137Z,5.03
2023-03-12T05:31:55.925Z,5.10
2023-03-12T05:34:25.143Z,4.98
2023-03-12T05:36:55.058Z,5.04
2023-03-12T05:39:28.276Z,4.94
2023-03-12T05:42:01.386Z,4.76
2023-03-12T05:44:30.509Z,4.74
2023-03-12T05:46:59.399Z,4.81
2023-03-12T05:49:29.264Z,4.80
2023-03-12T05:51:59.228Z,4.81
2023-03-12T05:54:28.494Z,4.78
2023-03-12T05:56:57.497Z,4.74
2023-03-12T05:59:28.426Z,4.72
2023-03-12T06:01:58.629Z,4.70
2023-03-12T06:04:28.053Z,4.51
2023-03-12T06:06:57.322Z,4.50
2023-03-12T06:09:26.388Z,4.60
2023-03-12T06:11:55.876Z,4.54
2023-03-12T06:14:24.838Z,4.55
2023-03-12T06:16:54.030Z,4.58
2023-03-12T06:19:23.070Z,4.43
2023-03-12T06:21:52.322Z,4.33
2023-03-12T06:24:21.630Z,4.40
2023-03-12T06:26:55.958Z,4.46
2023-03-12T06:29:25.135Z,4.43
2023-03-12T06:31:54.779Z,4.40
2023-03-12T06:34:23.896Z,4.35
2023-03-12T06:36:52.828Z,4.38
2023-03-12T06:39:21.726Z,4.25
2023-03-12T06:41:50.891Z,4.18
2023-03-12T06:44:20.422Z,4.26
2023-03-12T06:46:49.679Z,4.20
2023-03-12T06:49:18.745Z,4.12
2023-03-12T06:51:47.719Z,4.05
2023-03-12T06:54:17.320Z,4.08
2023-03-12T06:56:46.880Z,4.11
2023-03-12T06:59:15.825Z,4.08
2023-03-12T07:01:44.725Z,4.06
2023-03-12T07:04:13.800Z,4.07
2023-03-12T07:06:43.040Z,4.05
2023-03-12T07:09:12.044Z,3.99
2023-03-12T07:11:40.877Z,3.89
2023-03-12T07:14:09.941Z,3.78
2023-03-12T07:16:39.003Z,3.79
2023-03-12T07:19:08.176Z,3.83
2023-03-12T07:21:37.161Z,3.64
2023-03-12T07:24:08.653Z,3.57
2023-03-12T07:26:37.825Z,3.61
2023-03-12T07:29:06.964Z,3.61
2023-03-12T07:31:35.986Z,3.59
2023-03-12T07:34:06.974Z,3.51
2023-03-12T07:36:36.108Z,3.54
2023-03-12T07:39:05.419Z,3.57
2023-03-12T07:41:34.436Z,3.51
2023-03-12T07:44:03.370Z,3.51
2023-03-12T07:46:32.434Z,3.52
2023-03-12T07:49:01.893Z,3.54
2023-03-12T07:51:30.939Z,3.58
2023-03-12T07:53:59.777Z,3.51
2023-03-12T07:56:29.243Z,3.44
2023-03-12T07:58:58.430Z,3.43
2023-03-12T08:01:32.857Z,3.34
2023-03-12T08:04:03.492Z,3.39
2023-03-12T08:06:32.554Z,3.22
2023-03-12T08:09:01.565Z,2.74
2023-03-12T08:11:31.778Z,3.06
2023-03-12T08:14:00.873Z,3.17
2023-03-12T08:16:29.937Z,3.12
2023-03-12T08:18:59.327Z,3.15
2023-03-12T08:21:28.237Z,3.09
2023-03-12T08:23:57.210Z,3.13
2023-03-12T08:26:26.309Z,3.21
2023-03-12T08:28:55.298Z,3.15
2023-03-12T08:31:24.621Z,3.10
2023-03-12T08:33:53.594Z,3.04
2023-03-12T08:36:22.711Z,3.08
2023-03-12T08:38:51.742Z,2.99
2023-03-12T08:41:20.702Z,2.97
2023-03-12T08:43:49.978Z,3.08
2023-03-12T08:46:19.167Z,3.02
2023-03-12T08:48:48.126Z,2.95
2023-03-12T08:51:17.965Z,2.90
2023-03-12T08:53:47.483Z,2.90
2023-03-12T08:56:16.382Z,2.88
2023-03-12T08:58:45.660Z,2.80
2023-03-12T09:01:15.807Z,2.90
2023-03-12T09:03:44.915Z,2.80
2023-03-12T09:06:17.593Z,2.69
2023-03-12T09:08:47.550Z,2.61
2023-03-12T09:11:16.833Z,2.50
2023-03-12T09:14:11.575Z,2.51
2023-03-12T09:16:35.184Z,2.60
2023-03-12T09:19:04.616Z,2.28
2023-03-12T09:21:33.612Z,2.11
2023-03-12T09:24:03.110Z,2.27
2023-03-12T09:26:32.181Z,2.51
2023-03-12T09:29:01.137Z,2.50
2023-03-12T09:31:30.479Z,2.40
2023-03-12T09:33:59.539Z,2.49
2023-03-12T09:36:28.592Z,2.44
2023-03-12T09:38:57.509Z,2.43
2023-03-12T09:41:39.747Z,2.42
2023-03-12T09:44:40.082Z,2.34
2023-03-12T09:47:25.401Z,2.10
2023-03-12T09:50:05.001Z,2.29
2023-03-12T09:52:57.832Z,2.26
2023-03-12T09:55:29.144Z,2.19
2023-03-12T09:57:59.919Z,2.39
2023-03-12T10:00:33.783Z,2.08
2023-03-12T10:03:34.678Z,2.12
2023-03-12T10:06:51.118Z,2.22
2023-03-12T10:09:53.622Z,2.09
2023-03-12T10:13:01.314Z,1.59
2023-03-12T10:15:41.234Z,2.06
2023-03-12T10:18:22.676Z,2.01
2023-03-12T10:21:11.381Z,1.80
2023-03-12T10:24:03.143Z,1.92
2023-03-12T10:26:41.424Z,1.96
2023-03-12T10:29:44.552Z,1.88
2023-03-12T10:32:42.457Z,1.90
2023-03-12T10:35:33.909Z,1.88
2023-03-12T10:38:04.574Z,1.88
2023-03-12T10:40:36.050Z,1.97
2023-03-12T10:43:07.740Z,1.83
2023-03-12T10:45:54.961Z,1.75
2023-03-12T10:48:27.682Z,1.96
2023-03-12T10:51:05.224Z,1.57
2023-03-12T10:53:48.760Z,1.70
2023-03-12T10:56:20.408Z,1.88
2023-03-12T10:58:54.917Z,1.93
2023-03-12T11:01:26.988Z,1.81
2023-03-12T11:04:20.650Z,1.93
2023-03-12T11:07:19.783Z,1.86
2023-03-12T11:10:24.175Z,1.39
2023-03-12T11:13:05.720Z,1.31
2023-03-12T11:15:37.807Z,1.63
2023-03-12T11:18:21.232Z,1.60
2023-03-12T11:20:53.881Z,1.47
2023-03-12T11:23:25.125Z,1.13
2023-03-12T11:26:02.503Z,1.31
2023-03-12T11:28:44.040Z,1.31
2023-03-12T11:31:19.797Z,1.21
2023-03-12T11:33:49.713Z,1.23
2023-03-12T11:36:50.685Z,1.24
2023-03-12T11:40:10.822Z,1.06
2023-03-12T11:42:54.727Z,0.79
2023-03-12T11:46:09.280Z,1.17
2023-03-12T11:48:49.637Z,0.81
2023-03-12T11:51:44.625Z,0.77
2023-03-12T11:54:22.200Z,1.08
2023-03-12T11:56:56.460Z,1.13
2023-03-12T11:59:31.256Z,0.78
2023-03-12T12:02:21.615Z,0.68
2023-03-12T12:05:22.129Z,0.99
2023-03-12T12:08:23.499Z,1.08
2023-03-12T12:11:29.590Z,0.82
2023-03-12T12:14:32.351Z,0.64
2023-03-12T12:17:28.045Z,0.85
2023-03-12T12:20:17.959Z,0.95
2023-03-12T12:23:16.167Z,0.89
2023-03-12T12:26:40.008Z,0.60
2023-03-12T12:29:20.969Z,0.72
2023-03-12T12:31:52.879Z,0.89
2023-03-12T12:34:49.846Z,0.91
2023-03-12T12:37:34.954Z,0.90
2023-03-12T12:40:23.718Z,0.86
2023-03-12T12:42:58.663Z,0.95
2023-03-12T12:45:31.041Z,0.71
2023-03-12T12:48:22.382Z,0.85
2023-03-12T12:50:53.110Z,0.66
2023-03-12T12:53:35.304Z,0.82
2023-03-12T12:56:25.527Z,0.81
2023-03-12T12:59:17.662Z,0.50
2023-03-12T13:01:46.872Z,0.71
2023-03-12T13:04:31.806Z,0.66
2023-03-12T13:07:27.859Z,0.41
2023-03-12T13:09:59.665Z,0.06
2023-03-12T13:12:51.164Z,0.35
2023-03-12T13:15:32.495Z,0.40
2023-03-12T13:18:01.393Z,0.46
2023-03-12T13:20:42.247Z,0.66
2023-03-12T13:23:36.025Z,0.64
2023-03-12T13:26:19.582Z,0.47
2023-03-12T13:29:06.152Z,0.33
2023-03-12T13:31:42.298Z,0.79
2023-03-12T13:34:20.340Z,0.70
2023-03-12T13:36:53.246Z,0.52
2023-03-12T13:39:32.885Z,0.18
2023-03-12T13:42:22.758Z,-0.02
2023-03-12T13:44:52.869Z,0.24
2023-03-12T13:47:29.681Z,0.44
2023-03-12T13:50:02.936Z,0.51
2023-03-12T13:52:42.476Z,0.40
2023-03-12T13:55:25.956Z,0.42
2023-03-12T13:58:24.152Z,0.54
2023-03-12T14:01:07.140Z,0.45
2023-03-12T14:03:44.013Z,0.18
2023-03-12T14:06:22.245Z,-0.18
2023-03-12T14:08:56.244Z,0.27
2023-03-12T14:11:31.468Z,0.16
2023-03-12T14:14:30.236Z,-0.06
2023-03-12T14:17:02.353Z,-0.06
2023-03-12T14:19:34.571Z,0.04
2023-03-12T14:22:08.537Z,0.23
2023-03-12T14:24:58.107Z,0.38
2023-03-12T14:28:07.534Z,0.13
2023-03-12T14:31:16.529Z,-0.06
2023-03-12T14:34:26.069Z,-0.10
2023-03-12T14:37:25.215Z,-0.20
2023-03-12T14:39:56.520Z,0.17
2023-03-12T14:42:37.161Z,0.11
2023-03-12T14:45:08.770Z,0.04
2023-03-12T14:47:49.745Z,0.13
2023-03-12T14:50:30.848Z,0.15
2023-03-12T14:53:20.910Z,0.11
2023-03-12T14:56:04.472Z,-0.11
2023-03-12T14:58:34.920Z,-0.28
2023-03-12T15:01:07.816Z,-0.17
2023-03-12T15:03:46.386Z,0.18
2023-03-12T15:06:41.178Z,-0.20
2023-03-12T15:09:19.220Z,0.06
2023-03-12T15:11:57.547Z,0.07
2023-03-12T15:14:29.055Z,0.06
2023-03-12T15:17:00.334Z,0.40
2023-03-12T15:19:36.388Z,0.42
2023-03-12T15:22:05.822Z,0.62
2023-03-12T15:24:40.156Z,0.59
2023-03-12T15:27:26.612Z,0.36
2023-03-12T15:29:57.786Z,0.47
2023-03-12T15:32:28.887Z,0.31
2023-03-12T15:34:59.316Z,0.60
2023-03-12T15:37:39.457Z,0.79
2023-03-12T15:40:30.225Z,0.41
2023-03-12T15:43:03.831Z,0.69
2023-03-12T15:45:40.305Z,0.73
2023-03-12T15:48:30.412Z,0.71
2023-03-12T15:50:59.767Z,0.62
2023-03-12T15:53:35.265Z,0.77
2023-03-12T15:56:21.433Z,0.89
2023-03-12T15:59:23.380Z,0.95
2023-03-12T16:01:57.051Z,0.86
2023-03-12T16:04:26.686Z,0.70
2023-03-12T16:06:55.953Z,1.04
2023-03-12T16:09:27.817Z,1.01
2023-03-12T16:11:57.908Z,1.19
2023-03-12T16:14:37.122Z,1.05
2023-03-12T16:17:07.170Z,1.14
2023-03-12T16:19:36.229Z,1.31
2023-03-12T16:22:06.005Z,1.29
2023-03-12T16:24:35.123Z,1.30
2023-03-12T16:27:08.294Z,1.18
2023-03-12T16:29:39.507Z,1.20
2023-03-12T16:32:17.319Z,1.32
2023-03-12T16:34:46.878Z,1.31
2023-03-12T16:37:16.052Z,1.50
2023-03-12T16:39:47.215Z,1.48
2023-03-12T16:42:21.541Z,1.63
2023-03-12T16:44:50.567Z,1.55
2023-03-12T16:47:19.824Z,1.53
2023-03-12T16:49:48.892Z,1.82
2023-03-12T16:52:24.172Z,1.88
2023-03-12T16:54:55.437Z,1.75
2023-03-12T16:57:27.130Z,1.54
2023-03-12T16:59:56.837Z,1.58
2023-03-12T17:02:26.176Z,1.91
2023-03-12T17:04:55.550Z,2.07
2023-03-12T17:07:24.526Z,2.07
2023-03-12T17:09:53.555Z,2.37
2023-03-12T17:12:37.869Z,2.38
2023-03-12T17:15:20.659Z,2.36
2023-03-12T17:17:50.947Z,2.39
2023-03-12T17:20:22.286Z,2.52
2023-03-12T17:22:51.615Z,2.72
2023-03-12T17:25:29.964Z,2.79
2023-03-12T17:27:59.991Z,2.97
2023-03-12T17:30:31.312Z,2.85
2023-03-12T17:33:06.296Z,2.95
2023-03-12T17:35:35.978Z,3.12
2023-03-12T17:38:05.235Z,3.08
2023-03-12T17:40:34.839Z,3.07
2023-03-12T17:43:03.883Z,3.12
2023-03-12T17:45:32.796Z,3.42
2023-03-12T17:48:01.776Z,3.56
2023-03-12T17:50:30.702Z,3.48
2023-03-12T17:52:59.678Z,3.41
2023-03-12T17:55:28.862Z,3.40
2023-03-12T17:57:57.850Z,3.48
2023-03-12T18:00:26.733Z,3.28
2023-03-12T18:02:55.742Z,3.24
2023-03-12T18:05:24.966Z,3.61
2023-03-12T18:07:54.305Z,3.85
2023-03-12T18:10:23.391Z,4.01
2023-03-12T18:12:52.543Z,4.19
2023-03-12T18:15:21.578Z,4.30
2023-03-12T18:17:53.186Z,4.43
2023-03-12T18:20:32.437Z,4.62
2023-03-12T18:23:07.045Z,4.69
2023-03-12T18:25:36.012Z,4.92
2023-03-12T18:28:05.050Z,5.03
2023-03-12T18:30:35.012Z,5.17
2023-03-12T18:33:04.142Z,5.47
2023-03-12T18:35:33.231Z,5.67
2023-03-12T18:38:02.244Z,5.09
2023-03-12T18:40:34.404Z,5.17
2023-03-12T18:43:04.752Z,5.33
2023-03-12T18:45:33.903Z,5.86
2023-03-12T18:48:02.918Z,6.02
2023-03-12T18:50:31.900Z,6.21
2023-03-12T18:53:00.850Z,6.47
2023-03-12T18:55:30.244Z,6.71
2023-03-12T18:57:59.160Z,6.50
2023-03-12T19:00:28.102Z,6.71
2023-03-12T19:02:57.281Z,6.96
2023-03-12T19:05:26.469Z,7.08
2023-03-12T19:07:55.413Z,7.22
2023-03-12T19:10:24.325Z,7.22
2023-03-12T19:12:54.169Z,7.16
2023-03-12T19:15:24.958Z,7.13
2023-03-12T19:17:54.850Z,7.33
2023-03-12T19:20:23.905Z,7.07
2023-03-12T19:22:52.928Z,7.13
2023-03-12T19:25:22.008Z,7.55
2023-03-12T19:27:50.893Z,7.94
2023-03-12T19:30:20.099Z,7.66
2023-03-12T19:32:49.229Z,7.64
2023-03-12T19:35:18.398Z,7.86
2023-03-12T19:37:47.529Z,7.85
2023-03-12T19:40:16.665Z,7.75
2023-03-12T19:42:45.826Z,8.03
2023-03-12T19:45:15.281Z,8.38
2023-03-12T19:47:44.360Z,8.65
2023-03-12T19:50:13.857Z,8.60
2023-03-12T19:52:42.824Z,9.05
2023-03-12T19:55:12.752Z,9.21
2023-03-12T19:57:42.435Z,9.24
2023-03-12T20:00:12.962Z,9.22
2023-03-12T20:02:42.290Z,8.99
2023-03-12T20:05:11.717Z,8.71
2023-03-12T20:07:41.087Z,8.38
2023-03-12T20:10:10.843Z,8.48
2023-03-12T20:12:40.545Z,8.58
2023-03-12T20:15:10.193Z,8.73
2023-03-12T20:17:39.274Z,8.80
2023-03-12T20:20:09.713Z,8.54
2023-03-12T20:22:38.672Z,8.51
2023-03-12T20:25:08.497Z,8.53
2023-03-12T20:27:39.306Z,8.78
2023-03-12T20:30:09.170Z,8.84
2023-03-12T20:32:38.334Z,9.05
2023-03-12T20:35:07.734Z,9.25
2023-03-12T20:37:36.722Z,9.26
2023-03-12T20:40:09.269Z,9.22
2023-03-12T20:42:38.476Z,9.52
2023-03-12T20:45:08.155Z,9.38
2023-03-12T20:47:38.539Z,9.19
2023-03-12T20:50:09.245Z,9.44
2023-03-12T20:52:38.460Z,9.12
2023-03-12T20:55:07.742Z,9.43
2023-03-12T20:57:36.913Z,9.56
2023-03-12T21:00:06.521Z,9.52
2023-03-12T21:02:35.973Z,9.55
2023-03-12T21:05:05.101Z,9.53
2023-03-12T21:07:33.995Z,9.46
2023-03-12T21:10:03.238Z,9.23
2023-03-12T21:12:32.112Z,9.17
2023-03-12T21:15:07.004Z,9.22
2023-03-12T21:17:38.161Z,9.12
2023-03-12T21:20:10.399Z,9.38
2023-03-12T21:22:39.574Z,9.34
2023-03-12T21:25:08.962Z,9.41
2023-03-12T21:27:49.832Z,9.50
2023-03-12T21:30:20.731Z,9.58
2023-03-12T21:32:49.977Z,9.43
2023-03-12T21:35:20.761Z,9.60
2023-03-12T21:37:49.782Z,9.58
2023-03-12T21:40:19.044Z,9.57
2023-03-12T21:42:48.050Z,9.55
2023-03-12T21:45:17.490Z,9.38
2023-03-12T21:47:47.073Z,9.63
2023-03-12T21:50:16.302Z,9.52
2023-03-12T21:52:49.948Z,9.55
2023-03-12T21:55:22.941Z,9.49
2023-03-12T21:57:52.140Z,9.55
2023-03-12T22:00:30.180Z,9.43
2023-03-12T22:02:59.513Z,9.42
2023-03-12T22:05:28.559Z,9.38
2023-03-12T22:07:58.071Z,9.21
2023-03-12T22:10:27.523Z,8.94
2023-03-12T22:12:56.906Z,8.71
2023-03-12T22:15:29.252Z,8.63
2023-03-12T22:17:58.412Z,9.10
2023-03-12T22:20:27.430Z,8.95
2023-03-12T22:22:57.344Z,9.02
2023-03-12T22:25:31.188Z,8.93
2023-03-12T22:28:07.656Z,8.72
2023-03-12T22:30:40.278Z,8.82
2023-03-12T22:33:09.850Z,8.54
2023-03-12T22:36:02.102Z,8.32
2023-03-12T22:38:37.866Z,7.98
2023-03-12T22:41:14.336Z,8.37
2023-03-12T22:43:43.698Z,8.21
2023-03-12T22:46:13.471Z,8.10
2023-03-12T22:48:44.157Z,8.18
2023-03-12T22:51:13.856Z,8.01
2023-03-12T22:53:42.709Z,8.01
2023-03-12T22:56:43.179Z,8.40
2023-03-12T22:59:13.410Z,8.43
2023-03-12T23:01:54.328Z,8.44
2023-03-12T23:04:23.706Z,8.43
2023-03-12T23:06:55.333Z,8.51
2023-03-12T23:09:28.076Z,8.59
2023-03-12T23:11:56.977Z,8.68
2023-03-12T23:14:25.894Z,8.73
2023-03-12T23:16:54.775Z,8.76
2023-03-12T23:19:24.253Z,8.63
2023-03-12T23:21:53.145Z,8.62
2023-03-12T23:24:22.947Z,8.71
2023-03-12T23:26:51.982Z,8.55
2023-03-12T23:29:20.905Z,8.62
2023-03-12T23:31:50.280Z,8.52
2023-03-12T23:34:19.607Z,8.53
2023-03-12T23:36:49.200Z,8.62
2023-03-12T23:39:18.188Z,8.48
2023-03-12T23:41:47.084Z,8.25
2023-03-12T23:44:16.120Z,8.25
2023-03-12T23:46:45.821Z,8.40
2023-03-12T23:49:14.875Z,8.19
2023-03-12T23:51:43.966Z,8.04
2023-03-12T23:54:12.957Z,7.95
2023-03-12T23:56:42.009Z,8.28
2023-03-12T23:59:11.661Z,8.24
